sensor_id;sensor_type;location;lat;lon;timestamp;temperature;humidity
64493;DHT22;50868;24.150;-110.320;2023-07-30T00:00:33;49.80;56.10
64493;DHT22;50868;24.150;-110.320;2023-07-30T00:03:00;50.60;55.90
64493;DHT22;50868;24.150;-110.320;2023-07-30T00:05:27;50.90;55.00
64493;DHT22;50868;24.150;-110.320;2023-07-30T00:07:54;50.60;55.30
64493;DHT22;50868;24.150;-110.320;2023-07-30T00:10:21;50.20;55.40
64493;DHT22;50868;24.150;-110.320;2023-07-30T00:12:48;50.60;56.10
64493;DHT22;50868;24.150;-110.320;2023-07-30T00:15:16;50.20;55.40
64493;DHT22;50868;24.150;-110.320;2023-07-30T00:17:43;49.80;56.40
64493;DHT22;50868;24.150;-110.320;2023-07-30T00:20:10;49.30;56.90
64493;DHT22;50868;24.150;-110.320;2023-07-30T00:22:37;49.50;55.30
64493;DHT22;50868;24.150;-110.320;2023-07-30T00:25:05;50.60;51.90
64493;DHT22;50868;24.150;-110.320;2023-07-30T00:27:32;51.10;51.80
64493;DHT22;50868;24.150;-110.320;2023-07-30T00:29:59;50.60;53.20
64493;DHT22;50868;24.150;-110.320;2023-07-30T00:32:26;50.50;50.30
64493;DHT22;50868;24.150;-110.320;2023-07-30T00:34:53;48.50;56.10
64493;DHT22;50868;24.150;-110.320;2023-07-30T00:37:20;49.20;54.20
64493;DHT22;50868;24.150;-110.320;2023-07-30T00:39:47;49.10;54.70
64493;DHT22;50868;24.150;-110.320;2023-07-30T00:42:14;50.70;52.10
64493;DHT22;50868;24.150;-110.320;2023-07-30T00:44:41;51.90;50.60
64493;DHT22;50868;24.150;-110.320;2023-07-30T00:47:08;51.00;51.10
64493;DHT22;50868;24.150;-110.320;2023-07-30T00:49:35;50.70;50.70
64493;DHT22;50868;24.150;-110.320;2023-07-30T00:52:03;50.40;50.20
64493;DHT22;50868;24.150;-110.320;2023-07-30T00:54:31;50.10;50.50
64493;DHT22;50868;24.150;-110.320;2023-07-30T00:56:58;50.60;50.60
64493;DHT22;50868;24.150;-110.320;2023-07-30T00:59:25;49.80;51.10
64493;DHT22;50868;24.150;-110.320;2023-07-30T01:01:52;49.60;52.60
64493;DHT22;50868;24.150;-110.320;2023-07-30T01:04:19;50.40;56.50
64493;DHT22;50868;24.150;-110.320;2023-07-30T01:06:46;51.10;54.50
64493;DHT22;50868;24.150;-110.320;2023-07-30T01:09:13;51.30;54.70
64493;DHT22;50868;24.150;-110.320;2023-07-30T01:11:41;50.20;54.10
64493;DHT22;50868;24.150;-110.320;2023-07-30T01:14:10;50.10;54.20
64493;DHT22;50868;24.150;-110.320;2023-07-30T01:16:37;49.00;55.40
64493;DHT22;50868;24.150;-110.320;2023-07-30T01:19:05;48.90;55.30
64493;DHT22;50868;24.150;-110.320;2023-07-30T01:21:34;49.00;55.30
64493;DHT22;50868;24.150;-110.320;2023-07-30T01:24:01;48.40;55.50
64493;DHT22;50868;24.150;-110.320;2023-07-30T01:26:46;47.70;56.50
64493;DHT22;50868;24.150;-110.320;2023-07-30T01:29:24;47.40;57.10
64493;DHT22;50868;24.150;-110.320;2023-07-30T01:31:56;46.70;57.50
64493;DHT22;50868;24.150;-110.320;2023-07-30T01:34:25;46.60;57.70
64493;DHT22;50868;24.150;-110.320;2023-07-30T01:36:54;46.00;57.70
64493;DHT22;50868;24.150;-110.320;2023-07-30T01:39:23;45.20;58.50
64493;DHT22;50868;24.150;-110.320;2023-07-30T01:41:53;44.60;59.40
64493;DHT22;50868;24.150;-110.320;2023-07-30T01:44:21;43.70;60.00
64493;DHT22;50868;24.150;-110.320;2023-07-30T01:46:48;42.70;61.80
64493;DHT22;50868;24.150;-110.320;2023-07-30T01:49:15;41.90;62.80
64493;DHT22;50868;24.150;-110.320;2023-07-30T01:51:42;41.50;63.80
64493;DHT22;50868;24.150;-110.320;2023-07-30T01:54:09;41.00;64.60
64493;DHT22;50868;24.150;-110.320;2023-07-30T01:56:36;40.30;66.30
64493;DHT22;50868;24.150;-110.320;2023-07-30T01:59:03;39.60;68.10
64493;DHT22;50868;24.150;-110.320;2023-07-30T02:01:30;39.00;69.40
64493;DHT22;50868;24.150;-110.320;2023-07-30T02:03:57;38.30;71.30
64493;DHT22;50868;24.150;-110.320;2023-07-30T02:06:24;37.60;72.70
64493;DHT22;50868;24.150;-110.320;2023-07-30T02:08:51;37.20;73.80
64493;DHT22;50868;24.150;-110.320;2023-07-30T02:11:18;37.00;74.20
64493;DHT22;50868;24.150;-110.320;2023-07-30T02:13:45;36.80;75.20
64493;DHT22;50868;24.150;-110.320;2023-07-30T02:16:12;36.60;76.10
64493;DHT22;50868;24.150;-110.320;2023-07-30T02:18:39;36.30;76.80
64493;DHT22;50868;24.150;-110.320;2023-07-30T02:21:06;35.90;78.40
64493;DHT22;50868;24.150;-110.320;2023-07-30T02:23:33;35.70;78.80
64493;DHT22;50868;24.150;-110.320;2023-07-30T02:26:01;35.60;79.40
64493;DHT22;50868;24.150;-110.320;2023-07-30T02:28:28;35.50;80.40
64493;DHT22;50868;24.150;-110.320;2023-07-30T02:30:55;35.40;80.80
64493;DHT22;50868;24.150;-110.320;2023-07-30T02:33:22;35.10;81.50
64493;DHT22;50868;24.150;-110.320;2023-07-30T02:35:49;34.80;82.30
64493;DHT22;50868;24.150;-110.320;2023-07-30T02:38:16;34.70;82.80
64493;DHT22;50868;24.150;-110.320;2023-07-30T02:40:43;34.70;83.10
64493;DHT22;50868;24.150;-110.320;2023-07-30T02:43:10;34.50;83.70
64493;DHT22;50868;24.150;-110.320;2023-07-30T02:45:38;34.40;85.40
64493;DHT22;50868;24.150;-110.320;2023-07-30T02:48:06;34.30;85.20
64493;DHT22;50868;24.150;-110.320;2023-07-30T02:50:33;34.30;85.20
64493;DHT22;50868;24.150;-110.320;2023-07-30T02:53:00;34.10;85.50
64493;DHT22;50868;24.150;-110.320;2023-07-30T02:55:27;34.10;85.70
64493;DHT22;50868;24.150;-110.320;2023-07-30T02:57:54;34.00;85.70
64493;DHT22;50868;24.150;-110.320;2023-07-30T03:00:21;33.90;86.20
64493;DHT22;50868;24.150;-110.320;2023-07-30T03:02:51;33.80;86.40
64493;DHT22;50868;24.150;-110.320;2023-07-30T03:05:18;33.70;86.20
64493;DHT22;50868;24.150;-110.320;2023-07-30T03:07:45;33.60;86.60
64493;DHT22;50868;24.150;-110.320;2023-07-30T03:10:12;33.60;87.10
64493;DHT22;50868;24.150;-110.320;2023-07-30T03:12:39;33.50;87.80
64493;DHT22;50868;24.150;-110.320;2023-07-30T03:15:06;33.40;88.20
64493;DHT22;50868;24.150;-110.320;2023-07-30T03:17:33;33.40;88.40
64493;DHT22;50868;24.150;-110.320;2023-07-30T03:20:01;33.30;88.60
64493;DHT22;50868;24.150;-110.320;2023-07-30T03:22:28;33.20;88.70
64493;DHT22;50868;24.150;-110.320;2023-07-30T03:24:55;33.20;88.40
64493;DHT22;50868;24.150;-110.320;2023-07-30T03:27:22;33.20;88.20
64493;DHT22;50868;24.150;-110.320;2023-07-30T03:29:49;33.10;88.30
64493;DHT22;50868;24.150;-110.320;2023-07-30T03:32:16;33.00;89.10
64493;DHT22;50868;24.150;-110.320;2023-07-30T03:34:43;32.90;89.20
64493;DHT22;50868;24.150;-110.320;2023-07-30T03:37:10;33.00;89.20
64493;DHT22;50868;24.150;-110.320;2023-07-30T03:39:37;32.90;89.70
64493;DHT22;50868;24.150;-110.320;2023-07-30T03:42:04;32.70;89.60
64493;DHT22;50868;24.150;-110.320;2023-07-30T03:44:31;32.70;89.70
64493;DHT22;50868;24.150;-110.320;2023-07-30T03:46:58;32.70;90.10
64493;DHT22;50868;24.150;-110.320;2023-07-30T03:49:25;32.50;90.30
64493;DHT22;50868;24.150;-110.320;2023-07-30T03:51:53;32.50;90.30
64493;DHT22;50868;24.150;-110.320;2023-07-30T03:54:20;32.50;90.20
64493;DHT22;50868;24.150;-110.320;2023-07-30T03:56:47;32.50;90.00
64493;DHT22;50868;24.150;-110.320;2023-07-30T03:59:14;32.50;90.10
64493;DHT22;50868;24.150;-110.320;2023-07-30T04:01:41;32.40;89.80
64493;DHT22;50868;24.150;-110.320;2023-07-30T04:04:08;32.20;90.00
64493;DHT22;50868;24.150;-110.320;2023-07-30T04:06:35;32.20;90.00
64493;DHT22;50868;24.150;-110.320;2023-07-30T04:09:02;32.20;90.00
64493;DHT22;50868;24.150;-110.320;2023-07-30T04:11:29;32.20;90.00
64493;DHT22;50868;24.150;-110.320;2023-07-30T04:13:56;32.20;90.00
64493;DHT22;50868;24.150;-110.320;2023-07-30T04:16:23;32.20;89.90
64493;DHT22;50868;24.150;-110.320;2023-07-30T04:18:50;32.20;89.80
64493;DHT22;50868;24.150;-110.320;2023-07-30T04:21:17;32.30;89.90
64493;DHT22;50868;24.150;-110.320;2023-07-30T04:23:45;32.20;90.00
64493;DHT22;50868;24.150;-110.320;2023-07-30T04:26:12;32.10;90.00
64493;DHT22;50868;24.150;-110.320;2023-07-30T04:28:39;32.20;89.70
64493;DHT22;50868;24.150;-110.320;2023-07-30T04:31:07;32.20;89.70
64493;DHT22;50868;24.150;-110.320;2023-07-30T04:33:34;32.20;89.60
64493;DHT22;50868;24.150;-110.320;2023-07-30T04:36:01;32.20;88.60
64493;DHT22;50868;24.150;-110.320;2023-07-30T04:38:28;32.10;88.40
64493;DHT22;50868;24.150;-110.320;2023-07-30T04:40:58;32.10;88.20
64493;DHT22;50868;24.150;-110.320;2023-07-30T04:43:25;32.00;88.50
64493;DHT22;50868;24.150;-110.320;2023-07-30T04:45:52;32.00;88.90
64493;DHT22;50868;24.150;-110.320;2023-07-30T04:48:19;31.90;89.20
64493;DHT22;50868;24.150;-110.320;2023-07-30T04:50:46;31.90;89.00
64493;DHT22;50868;24.150;-110.320;2023-07-30T04:53:13;31.90;89.20
64493;DHT22;50868;24.150;-110.320;2023-07-30T04:55:40;31.80;89.60
64493;DHT22;50868;24.150;-110.320;2023-07-30T04:58:07;31.80;89.00
64493;DHT22;50868;24.150;-110.320;2023-07-30T05:00:34;31.80;89.10
64493;DHT22;50868;24.150;-110.320;2023-07-30T05:03:01;31.70;88.90
64493;DHT22;50868;24.150;-110.320;2023-07-30T05:05:28;31.70;89.00
64493;DHT22;50868;24.150;-110.320;2023-07-30T05:07:55;31.70;89.00
64493;DHT22;50868;24.150;-110.320;2023-07-30T05:10:23;31.70;89.00
64493;DHT22;50868;24.150;-110.320;2023-07-30T05:12:50;31.60;89.20
64493;DHT22;50868;24.150;-110.320;2023-07-30T05:15:17;31.60;89.00
64493;DHT22;50868;24.150;-110.320;2023-07-30T05:17:44;31.70;88.90
64493;DHT22;50868;24.150;-110.320;2023-07-30T05:20:11;31.70;88.60
64493;DHT22;50868;24.150;-110.320;2023-07-30T05:22:38;31.60;88.90
64493;DHT22;50868;24.150;-110.320;2023-07-30T05:25:06;31.60;88.90
64493;DHT22;50868;24.150;-110.320;2023-07-30T05:27:33;31.70;89.00
64493;DHT22;50868;24.150;-110.320;2023-07-30T05:30:00;31.70;89.00
64493;DHT22;50868;24.150;-110.320;2023-07-30T05:32:27;31.60;89.30
64493;DHT22;50868;24.150;-110.320;2023-07-30T05:34:54;31.60;89.70
64493;DHT22;50868;24.150;-110.320;2023-07-30T05:37:21;31.70;89.60
64493;DHT22;50868;24.150;-110.320;2023-07-30T05:39:49;31.60;89.60
64493;DHT22;50868;24.150;-110.320;2023-07-30T05:42:16;31.50;90.00
64493;DHT22;50868;24.150;-110.320;2023-07-30T05:44:43;31.40;90.20
64493;DHT22;50868;24.150;-110.320;2023-07-30T05:47:10;31.40;90.20
64493;DHT22;50868;24.150;-110.320;2023-07-30T05:49:37;31.40;90.20
64493;DHT22;50868;24.150;-110.320;2023-07-30T05:52:05;31.40;90.20
64493;DHT22;50868;24.150;-110.320;2023-07-30T05:54:32;31.30;90.40
64493;DHT22;50868;24.150;-110.320;2023-07-30T05:56:59;31.20;90.40
64493;DHT22;50868;24.150;-110.320;2023-07-30T05:59:26;31.10;90.40
64493;DHT22;50868;24.150;-110.320;2023-07-30T06:01:56;31.20;90.40
64493;DHT22;50868;24.150;-110.320;2023-07-30T06:04:25;31.30;90.60
64493;DHT22;50868;24.150;-110.320;2023-07-30T06:06:52;31.30;90.30
64493;DHT22;50868;24.150;-110.320;2023-07-30T06:09:19;31.30;90.20
64493;DHT22;50868;24.150;-110.320;2023-07-30T06:11:46;31.20;90.40
64493;DHT22;50868;24.150;-110.320;2023-07-30T06:14:14;31.20;90.20
64493;DHT22;50868;24.150;-110.320;2023-07-30T06:16:41;31.20;90.20
64493;DHT22;50868;24.150;-110.320;2023-07-30T06:19:09;31.20;90.30
64493;DHT22;50868;24.150;-110.320;2023-07-30T06:21:36;31.30;90.20
64493;DHT22;50868;24.150;-110.320;2023-07-30T06:24:03;31.20;90.40
64493;DHT22;50868;24.150;-110.320;2023-07-30T06:26:30;31.10;90.40
64493;DHT22;50868;24.150;-110.320;2023-07-30T06:28:57;31.00;90.50
64493;DHT22;50868;24.150;-110.320;2023-07-30T06:31:24;31.00;90.50
64493;DHT22;50868;24.150;-110.320;2023-07-30T06:33:51;30.90;90.60
64493;DHT22;50868;24.150;-110.320;2023-07-30T06:36:18;31.00;90.40
64493;DHT22;50868;24.150;-110.320;2023-07-30T06:38:45;31.00;90.40
64493;DHT22;50868;24.150;-110.320;2023-07-30T06:41:13;31.00;90.50
64493;DHT22;50868;24.150;-110.320;2023-07-30T06:43:40;31.00;90.40
64493;DHT22;50868;24.150;-110.320;2023-07-30T06:46:07;30.90;90.50
64493;DHT22;50868;24.150;-110.320;2023-07-30T06:48:34;30.90;90.60
64493;DHT22;50868;24.150;-110.320;2023-07-30T06:51:05;30.80;91.10
64493;DHT22;50868;24.150;-110.320;2023-07-30T06:53:32;30.80;90.80
64493;DHT22;50868;24.150;-110.320;2023-07-30T06:55:59;30.90;90.80
64493;DHT22;50868;24.150;-110.320;2023-07-30T06:58:26;30.80;90.80
64493;DHT22;50868;24.150;-110.320;2023-07-30T07:00:53;30.90;90.90
64493;DHT22;50868;24.150;-110.320;2023-07-30T07:03:20;30.90;90.90
64493;DHT22;50868;24.150;-110.320;2023-07-30T07:05:57;30.80;91.00
64493;DHT22;50868;24.150;-110.320;2023-07-30T07:08:24;30.80;91.10
64493;DHT22;50868;24.150;-110.320;2023-07-30T07:10:51;30.70;91.30
64493;DHT22;50868;24.150;-110.320;2023-07-30T07:13:18;30.80;91.20
64493;DHT22;50868;24.150;-110.320;2023-07-30T07:15:45;30.70;91.30
64493;DHT22;50868;24.150;-110.320;2023-07-30T07:18:12;30.60;91.50
64493;DHT22;50868;24.150;-110.320;2023-07-30T07:20:39;30.70;91.50
64493;DHT22;50868;24.150;-110.320;2023-07-30T07:23:07;30.70;91.40
64493;DHT22;50868;24.150;-110.320;2023-07-30T07:25:34;30.60;91.40
64493;DHT22;50868;24.150;-110.320;2023-07-30T07:28:01;30.70;91.30
64493;DHT22;50868;24.150;-110.320;2023-07-30T07:30:28;30.60;91.70
64493;DHT22;50868;24.150;-110.320;2023-07-30T07:32:55;30.50;91.90
64493;DHT22;50868;24.150;-110.320;2023-07-30T07:35:22;30.40;92.00
64493;DHT22;50868;24.150;-110.320;2023-07-30T07:37:49;30.50;92.00
64493;DHT22;50868;24.150;-110.320;2023-07-30T07:40:17;30.50;92.00
64493;DHT22;50868;24.150;-110.320;2023-07-30T07:42:44;30.50;92.30
64493;DHT22;50868;24.150;-110.320;2023-07-30T07:45:11;30.40;92.10
64493;DHT22;50868;24.150;-110.320;2023-07-30T07:47:38;30.40;92.00
64493;DHT22;50868;24.150;-110.320;2023-07-30T07:50:06;30.40;92.10
64493;DHT22;50868;24.150;-110.320;2023-07-30T07:52:33;30.30;92.20
64493;DHT22;50868;24.150;-110.320;2023-07-30T07:55:00;30.30;92.30
64493;DHT22;50868;24.150;-110.320;2023-07-30T07:57:27;30.30;92.30
64493;DHT22;50868;24.150;-110.320;2023-07-30T07:59:57;30.40;92.30
64493;DHT22;50868;24.150;-110.320;2023-07-30T08:02:24;30.30;92.50
64493;DHT22;50868;24.150;-110.320;2023-07-30T08:04:51;30.30;92.70
64493;DHT22;50868;24.150;-110.320;2023-07-30T08:07:18;30.30;92.70
64493;DHT22;50868;24.150;-110.320;2023-07-30T08:09:45;30.30;92.80
64493;DHT22;50868;24.150;-110.320;2023-07-30T08:12:12;30.40;93.00
64493;DHT22;50868;24.150;-110.320;2023-07-30T08:14:40;30.40;93.10
64493;DHT22;50868;24.150;-110.320;2023-07-30T08:17:07;30.30;93.30
64493;DHT22;50868;24.150;-110.320;2023-07-30T08:19:34;30.20;93.60
64493;DHT22;50868;24.150;-110.320;2023-07-30T08:22:01;30.10;93.80
64493;DHT22;50868;24.150;-110.320;2023-07-30T08:24:28;30.20;93.80
64493;DHT22;50868;24.150;-110.320;2023-07-30T08:26:55;30.10;93.90
64493;DHT22;50868;24.150;-110.320;2023-07-30T08:29:22;30.20;93.90
64493;DHT22;50868;24.150;-110.320;2023-07-30T08:31:49;30.10;94.30
64493;DHT22;50868;24.150;-110.320;2023-07-30T08:34:16;30.00;94.30
64493;DHT22;50868;24.150;-110.320;2023-07-30T08:36:43;30.10;94.30
64493;DHT22;50868;24.150;-110.320;2023-07-30T08:39:10;30.00;94.50
64493;DHT22;50868;24.150;-110.320;2023-07-30T08:41:38;30.10;94.40
64493;DHT22;50868;24.150;-110.320;2023-07-30T08:44:05;30.10;94.50
64493;DHT22;50868;24.150;-110.320;2023-07-30T08:46:32;30.00;94.50
64493;DHT22;50868;24.150;-110.320;2023-07-30T08:49:00;30.00;94.60
64493;DHT22;50868;24.150;-110.320;2023-07-30T08:51:27;29.90;94.70
64493;DHT22;50868;24.150;-110.320;2023-07-30T08:53:57;29.90;94.60
64493;DHT22;50868;24.150;-110.320;2023-07-30T08:56:24;30.00;94.60
64493;DHT22;50868;24.150;-110.320;2023-07-30T08:58:52;29.80;94.90
64493;DHT22;50868;24.150;-110.320;2023-07-30T09:01:30;29.90;94.90
64493;DHT22;50868;24.150;-110.320;2023-07-30T09:04:01;29.90;94.80
64493;DHT22;50868;24.150;-110.320;2023-07-30T09:06:28;30.00;94.50
64493;DHT22;50868;24.150;-110.320;2023-07-30T09:08:55;30.00;94.50
64493;DHT22;50868;24.150;-110.320;2023-07-30T09:11:26;29.90;94.60
64493;DHT22;50868;24.150;-110.320;2023-07-30T09:13:56;29.80;94.80
64493;DHT22;50868;24.150;-110.320;2023-07-30T09:16:26;29.80;94.90
64493;DHT22;50868;24.150;-110.320;2023-07-30T09:18:53;29.80;95.00
64493;DHT22;50868;24.150;-110.320;2023-07-30T09:21:30;29.80;95.00
64493;DHT22;50868;24.150;-110.320;2023-07-30T09:23:57;29.90;95.00
64493;DHT22;50868;24.150;-110.320;2023-07-30T09:26:45;29.90;95.00
64493;DHT22;50868;24.150;-110.320;2023-07-30T09:29:13;29.90;95.00
64493;DHT22;50868;24.150;-110.320;2023-07-30T09:31:50;29.80;95.20
64493;DHT22;50868;24.150;-110.320;2023-07-30T09:34:19;29.80;95.20
64493;DHT22;50868;24.150;-110.320;2023-07-30T09:36:47;29.70;95.70
64493;DHT22;50868;24.150;-110.320;2023-07-30T09:39:22;29.80;95.80
64493;DHT22;50868;24.150;-110.320;2023-07-30T09:42:00;29.70;96.10
64493;DHT22;50868;24.150;-110.320;2023-07-30T09:44:27;29.80;96.20
64493;DHT22;50868;24.150;-110.320;2023-07-30T09:46:54;29.70;96.30
64493;DHT22;50868;24.150;-110.320;2023-07-30T09:49:21;29.70;96.70
64493;DHT22;50868;24.150;-110.320;2023-07-30T09:51:49;29.60;96.80
64493;DHT22;50868;24.150;-110.320;2023-07-30T09:54:17;29.60;96.90
64493;DHT22;50868;24.150;-110.320;2023-07-30T09:56:44;29.70;97.00
64493;DHT22;50868;24.150;-110.320;2023-07-30T09:59:11;29.60;97.10
64493;DHT22;50868;24.150;-110.320;2023-07-30T10:01:46;29.60;97.20
64493;DHT22;50868;24.150;-110.320;2023-07-30T10:04:15;29.60;97.20
64493;DHT22;50868;24.150;-110.320;2023-07-30T10:07:03;29.50;97.40
64493;DHT22;50868;24.150;-110.320;2023-07-30T10:09:37;29.60;97.40
64493;DHT22;50868;24.150;-110.320;2023-07-30T10:12:23;29.60;97.60
64493;DHT22;50868;24.150;-110.320;2023-07-30T10:14:51;29.50;97.80
64493;DHT22;50868;24.150;-110.320;2023-07-30T10:17:18;29.50;97.80
64493;DHT22;50868;24.150;-110.320;2023-07-30T10:19:49;29.50;98.00
64493;DHT22;50868;24.150;-110.320;2023-07-30T10:22:24;29.60;98.00
64493;DHT22;50868;24.150;-110.320;2023-07-30T10:25:02;29.50;97.90
64493;DHT22;50868;24.150;-110.320;2023-07-30T10:27:42;29.50;98.00
64493;DHT22;50868;24.150;-110.320;2023-07-30T10:30:17;29.50;98.00
64493;DHT22;50868;24.150;-110.320;2023-07-30T10:35:44;29.30;98.30
64493;DHT22;50868;24.150;-110.320;2023-07-30T10:38:22;29.30;98.30
64493;DHT22;50868;24.150;-110.320;2023-07-30T10:43:43;29.40;98.10
64493;DHT22;50868;24.150;-110.320;2023-07-30T10:46:11;29.40;98.00
64493;DHT22;50868;24.150;-110.320;2023-07-30T10:48:42;29.30;98.10
64493;DHT22;50868;24.150;-110.320;2023-07-30T10:51:12;29.40;98.00
64493;DHT22;50868;24.150;-110.320;2023-07-30T10:53:45;29.30;97.90
64493;DHT22;50868;24.150;-110.320;2023-07-30T10:56:15;29.20;98.30
64493;DHT22;50868;24.150;-110.320;2023-07-30T10:58:43;29.20;98.10
64493;DHT22;50868;24.150;-110.320;2023-07-30T11:01:10;29.30;98.00
64493;DHT22;50868;24.150;-110.320;2023-07-30T11:03:37;29.20;98.10
64493;DHT22;50868;24.150;-110.320;2023-07-30T11:06:05;29.20;98.30
64493;DHT22;50868;24.150;-110.320;2023-07-30T11:08:34;29.20;98.10
64493;DHT22;50868;24.150;-110.320;2023-07-30T11:11:03;29.20;97.80
64493;DHT22;50868;24.150;-110.320;2023-07-30T11:13:39;29.20;97.70
64493;DHT22;50868;24.150;-110.320;2023-07-30T11:16:07;29.20;97.40
64493;DHT22;50868;24.150;-110.320;2023-07-30T11:18:37;29.30;97.10
64493;DHT22;50868;24.150;-110.320;2023-07-30T11:21:06;29.20;97.00
64493;DHT22;50868;24.150;-110.320;2023-07-30T11:23:34;29.20;96.60
64493;DHT22;50868;24.150;-110.320;2023-07-30T11:26:03;29.20;96.50
64493;DHT22;50868;24.150;-110.320;2023-07-30T11:28:32;29.20;96.30
64493;DHT22;50868;24.150;-110.320;2023-07-30T11:31:02;29.20;96.20
64493;DHT22;50868;24.150;-110.320;2023-07-30T11:33:29;29.30;95.60
64493;DHT22;50868;24.150;-110.320;2023-07-30T11:35:57;29.30;95.40
64493;DHT22;50868;24.150;-110.320;2023-07-30T11:38:26;29.20;95.40
64493;DHT22;50868;24.150;-110.320;2023-07-30T11:40:54;29.30;95.10
64493;DHT22;50868;24.150;-110.320;2023-07-30T11:43:23;29.20;95.10
64493;DHT22;50868;24.150;-110.320;2023-07-30T11:48:34;29.20;95.00
64493;DHT22;50868;24.150;-110.320;2023-07-30T11:51:02;29.20;94.70
64493;DHT22;50868;24.150;-110.320;2023-07-30T11:53:50;29.20;94.50
64493;DHT22;50868;24.150;-110.320;2023-07-30T11:56:26;29.10;94.60
64493;DHT22;50868;24.150;-110.320;2023-07-30T11:59:07;29.20;94.50
64493;DHT22;50868;24.150;-110.320;2023-07-30T12:01:35;29.20;94.40
64493;DHT22;50868;24.150;-110.320;2023-07-30T12:04:04;29.20;94.30
64493;DHT22;50868;24.150;-110.320;2023-07-30T12:06:46;29.20;94.30
64493;DHT22;50868;24.150;-110.320;2023-07-30T12:11:58;29.20;94.50
64493;DHT22;50868;24.150;-110.320;2023-07-30T12:17:12;29.20;94.70
64493;DHT22;50868;24.150;-110.320;2023-07-30T12:19:39;29.20;94.60
64493;DHT22;50868;24.150;-110.320;2023-07-30T12:22:07;29.30;94.40
64493;DHT22;50868;24.150;-110.320;2023-07-30T12:24:34;29.20;94.40
64493;DHT22;50868;24.150;-110.320;2023-07-30T12:27:01;29.30;94.50
64493;DHT22;50868;24.150;-110.320;2023-07-30T12:29:28;29.30;94.80
64493;DHT22;50868;24.150;-110.320;2023-07-30T12:31:55;29.40;95.00
64493;DHT22;50868;24.150;-110.320;2023-07-30T12:34:23;29.30;95.00
64493;DHT22;50868;24.150;-110.320;2023-07-30T12:36:50;29.30;95.00
64493;DHT22;50868;24.150;-110.320;2023-07-30T12:39:17;29.40;95.00
64493;DHT22;50868;24.150;-110.320;2023-07-30T12:41:44;29.30;95.20
64493;DHT22;50868;24.150;-110.320;2023-07-30T12:44:11;29.20;95.30
64493;DHT22;50868;24.150;-110.320;2023-07-30T12:46:38;29.10;95.30
64493;DHT22;50868;24.150;-110.320;2023-07-30T12:49:05;29.20;95.30
64493;DHT22;50868;24.150;-110.320;2023-07-30T12:51:33;29.20;95.30
64493;DHT22;50868;24.150;-110.320;2023-07-30T12:54:00;29.20;95.40
64493;DHT22;50868;24.150;-110.320;2023-07-30T12:56:27;29.40;95.00
64493;DHT22;50868;24.150;-110.320;2023-07-30T12:58:54;29.40;95.00
64493;DHT22;50868;24.150;-110.320;2023-07-30T13:01:21;29.50;94.70
64493;DHT22;50868;24.150;-110.320;2023-07-30T13:03:50;29.50;94.60
64493;DHT22;50868;24.150;-110.320;2023-07-30T13:06:18;29.30;94.80
64493;DHT22;50868;24.150;-110.320;2023-07-30T13:08:45;29.40;94.50
64493;DHT22;50868;24.150;-110.320;2023-07-30T13:11:12;29.40;94.30
64493;DHT22;50868;24.150;-110.320;2023-07-30T13:13:39;29.40;94.10
64493;DHT22;50868;24.150;-110.320;2023-07-30T13:16:06;29.40;94.00
64493;DHT22;50868;24.150;-110.320;2023-07-30T13:18:33;29.40;93.80
64493;DHT22;50868;24.150;-110.320;2023-07-30T13:21:00;29.40;93.80
64493;DHT22;50868;24.150;-110.320;2023-07-30T13:23:27;29.40;93.60
64493;DHT22;50868;24.150;-110.320;2023-07-30T13:25:55;29.30;93.40
64493;DHT22;50868;24.150;-110.320;2023-07-30T13:28:22;29.30;93.30
64493;DHT22;50868;24.150;-110.320;2023-07-30T13:30:49;29.40;93.00
64493;DHT22;50868;24.150;-110.320;2023-07-30T13:33:17;29.50;92.70
64493;DHT22;50868;24.150;-110.320;2023-07-30T13:35:45;29.50;92.80
64493;DHT22;50868;24.150;-110.320;2023-07-30T13:38:12;29.50;92.30
64493;DHT22;50868;24.150;-110.320;2023-07-30T13:40:39;29.60;92.20
64493;DHT22;50868;24.150;-110.320;2023-07-30T13:43:06;29.60;91.90
64493;DHT22;50868;24.150;-110.320;2023-07-30T13:45:33;29.60;91.40
64493;DHT22;50868;24.150;-110.320;2023-07-30T13:48:00;29.60;92.00
64493;DHT22;50868;24.150;-110.320;2023-07-30T13:50:27;29.70;90.80
64493;DHT22;50868;24.150;-110.320;2023-07-30T13:52:54;29.80;91.10
64493;DHT22;50868;24.150;-110.320;2023-07-30T13:55:21;29.70;91.10
64493;DHT22;50868;24.150;-110.320;2023-07-30T13:57:48;29.70;90.90
64493;DHT22;50868;24.150;-110.320;2023-07-30T14:00:15;29.60;90.70
64493;DHT22;50868;24.150;-110.320;2023-07-30T14:02:43;29.60;90.50
64493;DHT22;50868;24.150;-110.320;2023-07-30T14:05:11;29.80;90.20
64493;DHT22;50868;24.150;-110.320;2023-07-30T14:07:38;30.00;88.30
64493;DHT22;50868;24.150;-110.320;2023-07-30T14:10:07;30.10;88.00
64493;DHT22;50868;24.150;-110.320;2023-07-30T14:12:34;30.30;87.00
64493;DHT22;50868;24.150;-110.320;2023-07-30T14:15:02;30.20;87.60
64493;DHT22;50868;24.150;-110.320;2023-07-30T14:17:29;30.20;87.80
64493;DHT22;50868;24.150;-110.320;2023-07-30T14:19:56;30.30;87.40
64493;DHT22;50868;24.150;-110.320;2023-07-30T14:22:23;30.50;85.50
64493;DHT22;50868;24.150;-110.320;2023-07-30T14:24:50;30.50;85.00
64493;DHT22;50868;24.150;-110.320;2023-07-30T14:27:19;30.50;83.30
64493;DHT22;50868;24.150;-110.320;2023-07-30T14:29:46;30.60;82.90
64493;DHT22;50868;24.150;-110.320;2023-07-30T14:32:13;30.90;80.80
64493;DHT22;50868;24.150;-110.320;2023-07-30T14:34:40;31.00;80.60
64493;DHT22;50868;24.150;-110.320;2023-07-30T14:37:07;31.00;80.60
64493;DHT22;50868;24.150;-110.320;2023-07-30T14:39:34;31.10;79.90
64493;DHT22;50868;24.150;-110.320;2023-07-30T14:42:01;31.30;77.70
64493;DHT22;50868;24.150;-110.320;2023-07-30T14:44:28;31.60;77.10
64493;DHT22;50868;24.150;-110.320;2023-07-30T14:46:55;31.70;76.50
64493;DHT22;50868;24.150;-110.320;2023-07-30T14:49:25;31.90;75.80
64493;DHT22;50868;24.150;-110.320;2023-07-30T14:51:52;32.00;76.80
64493;DHT22;50868;24.150;-110.320;2023-07-30T14:54:19;31.80;77.10
64493;DHT22;50868;24.150;-110.320;2023-07-30T14:56:46;32.00;75.90
64493;DHT22;50868;24.150;-110.320;2023-07-30T14:59:13;32.10;76.10
64493;DHT22;50868;24.150;-110.320;2023-07-30T15:01:40;32.20;76.50
64493;DHT22;50868;24.150;-110.320;2023-07-30T15:04:07;32.30;77.40
64493;DHT22;50868;24.150;-110.320;2023-07-30T15:06:37;32.30;77.30